createdAt,value
2022-10-10T00:02:22.544Z,70.47
2022-10-10T00:04:54.488Z,71.13
2022-10-10T00:07:26.208Z,70.65
2022-10-10T00:09:57.857Z,70.57
2022-10-10T00:12:29.681Z,70.60
2022-10-10T00:15:01.403Z,71.00
2022-10-10T00:17:33.104Z,69.95
2022-10-10T00:20:08.120Z,70.63
2022-10-10T00:22:39.963Z,70.31
2022-10-10T00:25:11.929Z,70.46
2022-10-10T00:27:43.655Z,70.18
2022-10-10T00:30:18.535Z,70.52
2022-10-10T00:32:50.330Z,70.21
2022-10-10T00:35:22.119Z,70.61
2022-10-10T00:37:56.918Z,70.76
2022-10-10T00:40:29.332Z,70.65
2022-10-10T00:43:01.195Z,70.73
2022-10-10T00:45:35.408Z,71.26
2022-10-10T00:48:12.490Z,71.22
2022-10-10T00:51:03.686Z,71.08
2022-10-10T00:53:47.995Z,71.15
2022-10-10T00:56:22.614Z,71.16
2022-10-10T00:58:58.152Z,71.21
2022-10-10T01:01:29.878Z,70.60
2022-10-10T01:04:03.884Z,70.92
2022-10-10T01:06:35.649Z,71.13
2022-10-10T01:09:07.352Z,71.04
2022-10-10T01:11:49.830Z,71.14
2022-10-10T01:15:02.639Z,71.24
2022-10-10T01:18:04.597Z,71.55
2022-10-10T01:20:54.723Z,71.53
2022-10-10T01:24:00.349Z,71.45
2022-10-10T01:26:40.944Z,71.93
2022-10-10T01:29:40.832Z,71.78
2022-10-10T01:32:34.112Z,71.29
2022-10-10T01:35:43.371Z,71.57
2022-10-10T01:38:27.909Z,71.28
2022-10-10T01:41:19.811Z,71.41
2022-10-10T01:43:55.874Z,71.71
2022-10-10T01:46:27.639Z,71.55
2022-10-10T01:49:01.262Z,71.71
2022-10-10T01:51:51.635Z,71.74
2022-10-10T01:54:35.813Z,71.75
2022-10-10T01:57:31.691Z,71.48
2022-10-10T02:00:13.366Z,71.65
2022-10-10T02:02:52.811Z,71.92
2022-10-10T02:05:36.563Z,71.75
2022-10-10T02:08:36.212Z,71.37
2022-10-10T02:11:13.258Z,71.58
2022-10-10T02:13:53.226Z,71.66
2022-10-10T02:16:30.807Z,71.95
2022-10-10T02:19:06.050Z,72.09
2022-10-10T02:21:40.513Z,71.78
2022-10-10T02:24:13.792Z,71.71
2022-10-10T02:26:54.495Z,72.23
2022-10-10T02:29:31.808Z,71.87
2022-10-10T02:32:17.363Z,72.59
2022-10-10T02:34:55.587Z,71.99
2022-10-10T02:37:27.964Z,72.00
2022-10-10T02:40:02.842Z,72.45
2022-10-10T02:42:37.040Z,72.58
2022-10-10T02:45:12.002Z,72.71
2022-10-10T02:47:45.956Z,72.40
2022-10-10T02:50:17.930Z,72.41
2022-10-10T02:52:49.744Z,72.80
2022-10-10T02:55:21.662Z,72.34
2022-10-10T02:57:53.530Z,72.67
2022-10-10T03:00:25.216Z,72.45
2022-10-10T03:02:56.909Z,72.82
2022-10-10T03:05:28.587Z,73.06
2022-10-10T03:08:03.809Z,73.36
2022-10-10T03:10:40.385Z,73.25
2022-10-10T03:13:12.147Z,72.94
2022-10-10T03:15:43.800Z,72.99
2022-10-10T03:18:15.424Z,72.87
2022-10-10T03:20:54.030Z,73.38
2022-10-10T03:23:25.869Z,73.73
2022-10-10T03:25:57.576Z,73.68
2022-10-10T03:28:29.405Z,73.21
2022-10-10T03:31:01.127Z,73.75
2022-10-10T03:33:34.592Z,72.83
2022-10-10T03:36:06.613Z,73.40
2022-10-10T03:38:39.953Z,73.50
2022-10-10T03:41:11.883Z,73.47
2022-10-10T03:43:43.532Z,73.54
2022-10-10T03:46:16.371Z,73.24
2022-10-10T03:48:48.528Z,73.76
2022-10-10T03:51:23.374Z,73.93
2022-10-10T03:53:55.157Z,73.97
2022-10-10T03:56:26.787Z,73.65
2022-10-10T03:59:00.745Z,73.47
2022-10-10T04:01:33.282Z,73.81
2022-10-10T04:04:05.219Z,74.30
2022-10-10T04:06:36.935Z,74.12
2022-10-10T04:09:08.581Z,74.21
2022-10-10T04:11:41.038Z,73.82
2022-10-10T04:14:12.766Z,74.21
2022-10-10T04:16:44.396Z,74.93
2022-10-10T04:19:16.076Z,74.84
2022-10-10T04:21:47.682Z,74.48
2022-10-10T04:24:20.425Z,74.16
2022-10-10T04:26:52.165Z,74.29
2022-10-10T04:29:24.049Z,74.82
2022-10-10T04:31:55.704Z,75.24
2022-10-10T04:34:28.386Z,74.82
2022-10-10T04:37:00.097Z,75.43
2022-10-10T04:39:31.800Z,75.57
2022-10-10T04:42:03.668Z,75.19
2022-10-10T04:44:35.307Z,74.92
2022-10-10T04:47:10.071Z,75.17
2022-10-10T04:49:42.201Z,74.78
2022-10-10T04:52:13.960Z,74.20
2022-10-10T04:54:45.609Z,74.15
2022-10-10T04:57:17.332Z,74.48
2022-10-10T04:59:50.003Z,74.82
2022-10-10T05:02:21.706Z,75.21
2022-10-10T05:04:53.299Z,74.59
2022-10-10T05:07:24.978Z,74.50
2022-10-10T05:09:56.628Z,74.34
2022-10-10T05:12:28.465Z,74.03
2022-10-10T05:15:03.222Z,76.40
2022-10-10T05:17:35.142Z,77.63
2022-10-10T05:20:07.084Z,76.31
2022-10-10T05:22:38.899Z,73.51
2022-10-10T05:25:11.156Z,71.82
2022-10-10T05:27:45.041Z,71.42
2022-10-10T05:30:16.828Z,70.95
2022-10-10T05:32:48.705Z,71.63
2022-10-10T05:35:20.687Z,71.57
2022-10-10T05:37:52.356Z,71.29
2022-10-10T05:40:24.147Z,71.59
2022-10-10T05:42:55.853Z,70.70
2022-10-10T05:45:30.446Z,70.49
2022-10-10T05:48:02.308Z,70.35
2022-10-10T05:50:38.730Z,70.13
2022-10-10T05:53:10.479Z,69.04
2022-10-10T05:55:45.375Z,68.41
2022-10-10T05:58:20.438Z,67.21
2022-10-10T06:00:52.397Z,66.48
2022-10-10T06:03:24.367Z,65.55
2022-10-10T06:05:55.994Z,64.39
2022-10-10T06:08:34.151Z,63.48
2022-10-10T06:11:11.183Z,62.13
2022-10-10T06:13:43.857Z,60.53
2022-10-10T06:16:15.642Z,58.47
2022-10-10T06:18:47.506Z,57.28
2022-10-10T06:21:19.789Z,55.04
2022-10-10T06:23:51.836Z,52.29
2022-10-10T06:26:23.702Z,50.56
2022-10-10T06:28:55.700Z,48.42
2022-10-10T06:31:27.368Z,47.58
2022-10-10T06:33:59.149Z,45.55
2022-10-10T06:36:31.313Z,44.79
2022-10-10T06:39:03.046Z,44.21
2022-10-10T06:41:34.925Z,40.65
2022-10-10T06:44:17.905Z,40.42
2022-10-10T06:46:49.570Z,39.44
2022-10-10T06:49:33.771Z,38.03
2022-10-10T06:52:08.747Z,36.02
2022-10-10T06:54:43.379Z,36.22
2022-10-10T06:57:15.150Z,36.95
2022-10-10T06:59:46.858Z,37.66
2022-10-10T07:02:19.885Z,38.74
2022-10-10T07:04:51.917Z,39.32
2022-10-10T07:07:25.812Z,39.87
2022-10-10T07:09:57.652Z,40.88
2022-10-10T07:12:31.859Z,40.75
2022-10-10T07:15:06.866Z,40.32
2022-10-10T07:17:38.544Z,40.61
2022-10-10T07:20:10.346Z,41.51
2022-10-10T07:22:42.310Z,42.27
2022-10-10T07:25:14.096Z,42.40
2022-10-10T07:27:45.938Z,42.19
2022-10-10T07:30:17.774Z,42.08
2022-10-10T07:32:49.969Z,42.44
2022-10-10T07:35:22.647Z,42.29
2022-10-10T07:37:56.087Z,42.06
2022-10-10T07:40:27.996Z,41.35
2022-10-10T07:42:59.732Z,41.73
2022-10-10T07:45:31.579Z,40.44
2022-10-10T07:48:03.807Z,39.40
2022-10-10T07:50:35.755Z,39.40
2022-10-10T07:53:08.097Z,39.25
2022-10-10T07:55:43.800Z,38.41
2022-10-10T07:58:15.627Z,38.01
2022-10-10T08:00:47.368Z,37.28
2022-10-10T08:03:21.041Z,36.99
2022-10-10T08:05:52.972Z,36.43
2022-10-10T08:08:24.896Z,35.91
2022-10-10T08:10:57.933Z,35.21
2022-10-10T08:13:29.617Z,35.21
2022-10-10T08:16:01.801Z,34.70
2022-10-10T08:18:33.599Z,34.98
2022-10-10T08:21:10.807Z,35.50
2022-10-10T08:23:42.674Z,35.48
2022-10-10T08:26:16.121Z,34.74
2022-10-10T08:28:48.706Z,34.80
2022-10-10T08:31:22.848Z,35.33
2022-10-10T08:33:56.317Z,35.15
2022-10-10T08:36:28.326Z,34.94
2022-10-10T08:39:01.595Z,34.76
2022-10-10T08:41:40.644Z,34.61
2022-10-10T08:44:21.962Z,33.50
2022-10-10T08:47:01.858Z,33.10
2022-10-10T08:49:45.699Z,32.17
2022-10-10T08:52:29.632Z,31.44
2022-10-10T08:55:05.106Z,30.78
2022-10-10T08:57:48.316Z,29.99
2022-10-10T09:00:22.863Z,29.85
2022-10-10T09:02:58.307Z,29.42
2022-10-10T09:06:08.472Z,28.72
2022-10-10T09:08:56.191Z,28.36
2022-10-10T09:12:01.669Z,28.03
2022-10-10T09:14:44.938Z,27.85
2022-10-10T09:17:25.948Z,27.79
2022-10-10T09:20:03.825Z,28.65
2022-10-10T09:22:46.694Z,28.53
2022-10-10T09:25:23.623Z,28.07
2022-10-10T09:28:12.721Z,27.95
2022-10-10T09:30:51.224Z,27.55
2022-10-10T09:33:25.665Z,27.58
2022-10-10T09:35:59.334Z,27.76
2022-10-10T09:38:59.460Z,28.48
2022-10-10T09:41:46.419Z,28.59
2022-10-10T09:44:21.659Z,28.52
2022-10-10T09:46:53.717Z,29.07
2022-10-10T09:49:25.784Z,30.36
2022-10-10T09:51:58.173Z,30.50
2022-10-10T09:54:30.225Z,30.17
2022-10-10T09:57:05.220Z,29.33
2022-10-10T09:59:46.424Z,29.29
2022-10-10T10:02:20.802Z,28.66
2022-10-10T10:04:53.782Z,29.04
2022-10-10T10:07:32.001Z,29.12
2022-10-10T10:10:18.751Z,28.98
2022-10-10T10:12:55.005Z,29.17
2022-10-10T10:15:30.617Z,29.56
2022-10-10T10:18:13.242Z,29.32
2022-10-10T10:20:48.023Z,29.31
2022-10-10T10:23:53.604Z,29.56
2022-10-10T10:26:28.037Z,29.64
2022-10-10T10:29:01.054Z,30.79
2022-10-10T10:32:11.866Z,30.47
2022-10-10T10:34:49.447Z,30.05
2022-10-10T10:37:43.673Z,30.01
2022-10-10T10:40:36.631Z,29.81
2022-10-10T10:43:51.901Z,29.52
2022-10-10T10:46:38.553Z,29.23
2022-10-10T10:49:42.575Z,29.19
2022-10-10T10:52:21.530Z,29.43
2022-10-10T10:55:02.197Z,29.20
2022-10-10T10:58:10.301Z,29.65
2022-10-10T11:01:23.961Z,29.70
2022-10-10T11:05:16.323Z,29.66
2022-10-10T11:06:59.963Z,29.76
2022-10-10T11:09:50.193Z,29.78
2022-10-10T11:12:41.931Z,30.42
2022-10-10T11:15:13.764Z,30.54
2022-10-10T11:17:54.359Z,30.55
2022-10-10T11:20:53.588Z,30.86
2022-10-10T11:23:36.477Z,30.62
2022-10-10T11:26:23.136Z,31.47
2022-10-10T11:29:15.019Z,31.66
2022-10-10T11:31:59.868Z,31.18
2022-10-10T11:34:55.434Z,31.53
2022-10-10T11:37:43.209Z,31.29
2022-10-10T11:40:30.707Z,30.72
2022-10-10T11:43:12.488Z,31.54
2022-10-10T11:45:51.094Z,31.94
2022-10-10T11:48:53.407Z,31.56
2022-10-10T11:51:37.565Z,31.93
2022-10-10T11:54:25.804Z,32.29
2022-10-10T11:57:03.359Z,31.90
2022-10-10T11:59:41.889Z,32.73
2022-10-10T12:02:36.424Z,32.93
2022-10-10T12:05:32.530Z,32.98
2022-10-10T12:08:49.326Z,32.92
2022-10-10T12:11:47.794Z,33.52
2022-10-10T12:14:22.384Z,33.58
2022-10-10T12:16:54.348Z,33.29
2022-10-10T12:19:28.677Z,32.47
2022-10-10T12:22:06.137Z,32.61
2022-10-10T12:25:20.620Z,32.31
2022-10-10T12:28:22.438Z,32.50
2022-10-10T12:30:58.452Z,32.79
2022-10-10T12:33:33.553Z,33.09
2022-10-10T12:36:37.617Z,33.36
2022-10-10T12:39:10.863Z,33.47
2022-10-10T12:41:57.142Z,33.14
2022-10-10T12:44:34.559Z,33.02
2022-10-10T12:47:15.240Z,33.50
2022-10-10T12:49:57.579Z,34.00
2022-10-10T12:52:49.639Z,34.28
2022-10-10T12:55:32.478Z,34.09
2022-10-10T12:58:12.149Z,34.69
2022-10-10T13:00:49.924Z,34.06
2022-10-10T13:03:28.296Z,34.66
2022-10-10T13:06:15.355Z,34.85
2022-10-10T13:08:48.046Z,35.52
2022-10-10T13:11:19.785Z,35.55
2022-10-10T13:14:01.317Z,35.36
2022-10-10T13:16:43.956Z,35.11
2022-10-10T13:19:24.498Z,34.96
2022-10-10T13:21:56.433Z,35.49
2022-10-10T13:24:31.657Z,35.72
2022-10-10T13:27:03.525Z,35.80
2022-10-10T13:29:41.845Z,35.95
2022-10-10T13:32:28.011Z,36.09
2022-10-10T13:35:04.252Z,36.53
2022-10-10T13:37:36.488Z,36.58
2022-10-10T13:40:19.511Z,36.75
2022-10-10T13:42:52.342Z,36.98
2022-10-10T13:45:30.770Z,37.02
2022-10-10T13:48:02.587Z,37.23
2022-10-10T13:50:43.464Z,38.13
2022-10-10T13:53:30.441Z,38.26
2022-10-10T13:56:13.694Z,38.41
2022-10-10T13:59:00.749Z,38.07
2022-10-10T14:01:44.466Z,38.14
2022-10-10T14:04:22.079Z,38.26
2022-10-10T14:07:01.289Z,38.46
2022-10-10T14:09:48.000Z,38.55
2022-10-10T14:12:28.211Z,38.59
2022-10-10T14:15:00.946Z,38.22
2022-10-10T14:17:32.625Z,38.58
2022-10-10T14:20:09.697Z,38.83
2022-10-10T14:22:41.600Z,39.07
2022-10-10T14:25:14.229Z,39.29
2022-10-10T14:27:46.083Z,39.42
2022-10-10T14:30:17.847Z,39.19
2022-10-10T14:32:49.533Z,39.37
2022-10-10T14:35:21.310Z,39.83
2022-10-10T14:37:55.909Z,40.06
2022-10-10T14:40:30.560Z,40.67
2022-10-10T14:43:02.453Z,40.93
2022-10-10T14:45:34.328Z,41.13
2022-10-10T14:48:06.720Z,41.48
2022-10-10T14:50:44.192Z,41.76
2022-10-10T14:53:16.488Z,41.79
2022-10-10T14:55:51.328Z,42.02
2022-10-10T14:58:25.645Z,42.37
2022-10-10T15:00:57.790Z,42.59
2022-10-10T15:03:29.655Z,43.08
2022-10-10T15:06:01.406Z,43.42
2022-10-10T15:08:33.493Z,43.64
2022-10-10T15:11:05.691Z,43.90
2022-10-10T15:13:39.339Z,44.15
2022-10-10T15:16:11.296Z,44.48
2022-10-10T15:18:58.586Z,45.09
2022-10-10T15:21:32.904Z,45.37
2022-10-10T15:24:04.983Z,45.77
2022-10-10T15:26:36.718Z,45.77
2022-10-10T15:29:08.434Z,46.03
2022-10-10T15:31:40.236Z,46.20
2022-10-10T15:34:12.050Z,46.23
2022-10-10T15:36:43.727Z,46.96
2022-10-10T15:39:15.871Z,47.11
2022-10-10T15:41:47.491Z,47.31
2022-10-10T15:44:19.355Z,47.27
2022-10-10T15:46:51.045Z,47.69
2022-10-10T15:49:22.881Z,47.85
2022-10-10T15:51:54.619Z,48.19
2022-10-10T15:54:26.419Z,48.17
2022-10-10T15:56:58.149Z,48.46
2022-10-10T15:59:30.265Z,48.95
2022-10-10T16:02:02.053Z,48.83
2022-10-10T16:04:33.757Z,49.40
2022-10-10T16:07:25.548Z,49.57
2022-10-10T16:09:59.099Z,49.87
2022-10-10T16:12:30.778Z,49.96
2022-10-10T16:15:06.929Z,50.56
2022-10-10T16:17:38.946Z,50.75
2022-10-10T16:20:11.032Z,51.02
2022-10-10T16:22:42.764Z,51.11
2022-10-10T16:25:22.386Z,51.64
2022-10-10T16:27:54.806Z,52.02
2022-10-10T16:30:26.635Z,52.23
2022-10-10T16:33:01.902Z,53.43
2022-10-10T16:35:37.813Z,53.51
2022-10-10T16:38:09.695Z,53.59
2022-10-10T16:40:41.516Z,53.51
2022-10-10T16:43:13.312Z,53.92
2022-10-10T16:45:46.000Z,53.82
2022-10-10T16:48:17.687Z,54.02
2022-10-10T16:50:50.006Z,53.89
2022-10-10T16:53:21.772Z,54.17
2022-10-10T16:55:53.413Z,54.82
2022-10-10T16:58:25.456Z,54.93
2022-10-10T17:00:59.419Z,55.02
2022-10-10T17:03:34.329Z,54.98
2022-10-10T17:06:17.615Z,55.63
2022-10-10T17:08:51.903Z,55.71
2022-10-10T17:11:24.356Z,55.72
2022-10-10T17:13:56.270Z,55.85
2022-10-10T17:19:23.636Z,56.31
2022-10-10T17:21:55.405Z,56.47
2022-10-10T17:24:27.197Z,56.66
2022-10-10T17:26:58.879Z,56.71
2022-10-10T17:29:30.579Z,56.81
2022-10-10T17:32:06.186Z,57.08
2022-10-10T17:34:38.341Z,57.50
2022-10-10T17:37:10.324Z,58.16
2022-10-10T17:39:42.144Z,58.79
2022-10-10T17:42:14.077Z,59.22
2022-10-10T17:44:51.513Z,59.53
2022-10-10T17:47:27.593Z,59.71
2022-10-10T17:49:59.335Z,60.34
2022-10-10T17:52:34.448Z,60.56
2022-10-10T17:55:06.620Z,61.11
2022-10-10T17:57:38.407Z,61.54
2022-10-10T18:00:10.740Z,62.06
2022-10-10T18:02:44.543Z,62.38
2022-10-10T18:05:18.329Z,62.67
2022-10-10T18:07:50.423Z,63.13
2022-10-10T18:10:22.190Z,63.08
2022-10-10T18:12:54.007Z,63.66
2022-10-10T18:15:25.701Z,63.30
2022-10-10T18:17:57.792Z,63.26
2022-10-10T18:20:29.659Z,63.50
2022-10-10T18:23:01.612Z,63.92
2022-10-10T18:25:33.784Z,64.12
2022-10-10T18:28:08.069Z,64.50
2022-10-10T18:30:40.291Z,64.55
2022-10-10T18:33:12.014Z,64.78
2022-10-10T18:35:43.821Z,64.80
2022-10-10T18:38:21.241Z,65.39
2022-10-10T18:41:07.894Z,65.94
2022-10-10T18:43:40.836Z,65.95
2022-10-10T18:46:15.652Z,66.44
2022-10-10T18:48:51.486Z,67.04
2022-10-10T18:51:29.438Z,67.63
2022-10-10T18:54:04.451Z,67.87
2022-10-10T18:56:38.128Z,67.88
2022-10-10T18:59:22.267Z,68.17
2022-10-10T19:01:54.127Z,68.12
2022-10-10T19:04:26.163Z,68.71
2022-10-10T19:06:58.046Z,69.05
2022-10-10T19:09:31.015Z,69.06
2022-10-10T19:12:02.828Z,69.16
2022-10-10T19:14:34.653Z,68.93
2022-10-10T19:17:09.103Z,69.00
2022-10-10T19:19:40.918Z,68.85
2022-10-10T19:22:13.113Z,68.93
2022-10-10T19:24:44.963Z,68.67
2022-10-10T19:27:16.596Z,68.19
2022-10-10T19:29:50.697Z,68.23
2022-10-10T19:32:22.417Z,68.15
2022-10-10T19:34:54.202Z,68.07
2022-10-10T19:37:26.527Z,67.87
2022-10-10T19:39:58.592Z,67.50
2022-10-10T19:42:30.478Z,67.53
2022-10-10T19:45:02.625Z,67.58
2022-10-10T19:47:34.477Z,67.32
2022-10-10T19:50:06.678Z,67.39
2022-10-10T19:52:38.403Z,67.36
2022-10-10T19:55:10.847Z,67.37
2022-10-10T19:57:42.556Z,67.42
2022-10-10T20:00:14.802Z,67.67
2022-10-10T20:02:46.945Z,68.06
2022-10-10T20:05:18.741Z,68.05
2022-10-10T20:07:50.882Z,68.12
2022-10-10T20:10:23.506Z,68.44
2022-10-10T20:12:55.467Z,68.26
2022-10-10T20:15:27.208Z,68.76
2022-10-10T20:17:59.063Z,68.51
2022-10-10T20:20:30.792Z,68.29
2022-10-10T20:23:02.807Z,68.49
2022-10-10T20:25:42.531Z,68.77
2022-10-10T20:28:16.115Z,68.80
2022-10-10T20:30:50.567Z,68.56
2022-10-10T20:33:22.390Z,68.65
2022-10-10T20:35:56.226Z,68.72
2022-10-10T20:38:28.097Z,68.39
2022-10-10T20:41:02.995Z,68.52
2022-10-10T20:43:36.092Z,68.01
2022-10-10T20:46:10.406Z,68.58
2022-10-10T20:48:42.168Z,68.13
2022-10-10T20:51:14.064Z,68.11
2022-10-10T20:53:45.828Z,68.02
2022-10-10T20:56:17.545Z,68.08
2022-10-10T20:58:49.209Z,68.28
2022-10-10T21:01:24.864Z,68.36
2022-10-10T21:03:57.164Z,68.19
2022-10-10T21:06:34.536Z,68.42
2022-10-10T21:09:08.764Z,68.27
2022-10-10T21:11:41.632Z,68.63
2022-10-10T21:14:13.559Z,68.63
2022-10-10T21:16:45.550Z,68.78
2022-10-10T21:19:18.025Z,68.68
2022-10-10T21:21:49.761Z,68.64
2022-10-10T21:24:21.415Z,68.55
2022-10-10T21:26:53.146Z,68.75
2022-10-10T21:29:24.852Z,68.73
2022-10-10T21:31:56.596Z,68.51
2022-10-10T21:34:28.242Z,68.50
2022-10-10T21:37:00.025Z,68.48
2022-10-10T21:39:32.058Z,68.47
2022-10-10T21:42:04.141Z,68.55
2022-10-10T21:44:35.825Z,68.96
2022-10-10T21:47:07.562Z,69.03
2022-10-10T21:49:42.776Z,69.29
2022-10-10T21:52:14.746Z,69.33
2022-10-10T21:54:46.437Z,69.17
2022-10-10T21:57:18.526Z,68.78
2022-10-10T21:59:50.273Z,69.26
2022-10-10T22:02:22.106Z,69.58
2022-10-10T22:04:54.713Z,69.54
2022-10-10T22:07:26.372Z,69.77
2022-10-10T22:10:00.876Z,69.76
2022-10-10T22:12:32.680Z,69.76
2022-10-10T22:15:04.579Z,70.18
2022-10-10T22:17:37.127Z,70.20
2022-10-10T22:20:10.291Z,70.36
2022-10-10T22:22:43.379Z,70.42
2022-10-10T22:25:17.495Z,70.18
2022-10-10T22:27:49.227Z,70.52
2022-10-10T22:30:21.239Z,70.48
2022-10-10T22:32:53.069Z,70.61
2022-10-10T22:35:27.747Z,70.38
2022-10-10T22:38:00.102Z,70.54
2022-10-10T22:40:32.042Z,70.70
2022-10-10T22:43:03.847Z,70.67
2022-10-10T22:45:35.577Z,71.08
2022-10-10T22:48:07.280Z,70.60
2022-10-10T22:50:41.725Z,70.84
2022-10-10T22:53:13.476Z,71.36
2022-10-10T22:55:45.141Z,71.31
2022-10-10T22:58:16.772Z,71.77
2022-10-10T23:00:48.515Z,72.13
2022-10-10T23:03:20.657Z,71.93
2022-10-10T23:05:52.377Z,71.70
2022-10-10T23:08:24.482Z,71.74
2022-10-10T23:10:56.856Z,71.79
2022-10-10T23:13:29.265Z,72.10
2022-10-10T23:16:01.374Z,72.07
2022-10-10T23:18:33.381Z,71.95
2022-10-10T23:21:05.114Z,71.95
2022-10-10T23:23:37.300Z,72.13
2022-10-10T23:26:09.281Z,72.04
2022-10-10T23:28:45.901Z,71.95
2022-10-10T23:31:17.689Z,72.36
2022-10-10T23:33:49.481Z,72.03
2022-10-10T23:36:21.158Z,72.41
2022-10-10T23:38:52.983Z,72.64
2022-10-10T23:41:25.069Z,72.50
2022-10-10T23:43:56.791Z,73.60
2022-10-10T23:46:28.434Z,73.23
2022-10-10T23:49:00.251Z,73.08
2022-10-10T23:51:32.198Z,72.66
2022-10-10T23:54:04.000Z,72.93
2022-10-10T23:56:35.752Z,73.14
2022-10-10T23:59:07.533Z,73.45
